Terminal Aerodrome Forecast
Issued by NWS

Home | Current Version | Previous Version | Text Only | Print | Product List | Glossary On
Versions: 1 2 3 4 5 6 7 8 9 10 11 12 13 14 15 16 17
000
FTUS45 KLKN 291724
TAFTPH
TAF
KTPH 291724Z 2918/3018 32012G22KT P6SM SCT060 SCT100
     FM292000 32018G28KT P6SM SCT050 BKN100
     FM300200 34020G30KT P6SM VCSH SCT035 BKN060
     FM300800 34016G26KT 6SM -SHRA SCT025 OVC040
     FM301400 35020G30KT P6SM VCSH SCT035 BKN050=

USA.gov is the U.S. government's official web portal to all federal, state and local government web resources and services.